Time;durP1;ratioP1;P1;durP2;ratioP2;P2;SDS_P1;SDS_P2;PMS_P1;PMS_P2;Temp;Humidity;BMP_temperature;BMP_pressure;BME280_temperature;BME280_humidity;BME280_pressure;Samples;Min_cycle;Max_cycle;Signal;HPM_P1;HPM_P2
2022/03/05 00:00:06;;;;;;;12.48;9.88;;;;;;;19.21;37.41;101156.69;5073882;28;20051;-82
2022/03/05 00:02:41;;;;;;;10.75;9.32;;;;;;;19.21;37.24;101162.06;5073428;28;20048;-82
2022/03/05 00:05:10;;;;;;;10.65;8.93;;;;;;;19.22;37.18;101166.44;5072172;28;20055;-82
2022/03/05 00:07:37;;;;;;;10.85;9.13;;;;;;;19.21;37.52;101162.06;5076084;28;20041;-82
2022/03/05 00:10:05;;;;;;;10.52;9.50;;;;;;;19.20;37.24;101158.53;5075828;28;20052;-82
2022/03/05 00:12:32;;;;;;;11.52;9.40;;;;;;;19.22;37.17;101163.75;5073359;28;20048;-82
2022/03/05 00:15:00;;;;;;;11.13;8.82;;;;;;;19.21;37.40;101173.63;5073172;28;20056;-82
2022/03/05 00:17:27;;;;;;;11.25;10.05;;;;;;;19.21;37.25;101176.31;5073139;28;20396;-83
2022/03/05 00:19:55;;;;;;;13.73;10.07;;;;;;;19.21;37.16;101170.09;5075156;28;20048;-82
2022/03/05 00:22:22;;;;;;;12.00;9.18;;;;;;;19.21;37.01;101179.00;5077383;28;20048;-82
2022/03/05 00:24:50;;;;;;;10.07;8.85;;;;;;;19.21;37.11;101181.69;5077005;28;20043;-82
2022/03/05 00:27:17;;;;;;;12.23;10.32;;;;;;;19.21;37.21;101180.84;5077032;28;20045;-82
2022/03/05 00:29:45;;;;;;;10.27;9.15;;;;;;;19.21;37.16;101176.31;5077213;28;20045;-82
2022/03/05 00:32:12;;;;;;;10.30;9.23;;;;;;;19.21;37.19;101187.06;5075918;28;20384;-82
2022/03/05 00:34:40;;;;;;;10.45;9.30;;;;;;;19.21;37.11;101180.84;5076083;28;20052;-82
2022/03/05 00:37:10;;;;;;;10.80;8.73;;;;;;;19.22;36.99;101185.22;5076982;28;20048;-82
2022/03/05 00:39:38;;;;;;;12.50;9.50;;;;;;;19.22;37.02;101187.91;5076952;28;20384;-82
2022/03/05 00:42:06;;;;;;;10.07;9.02;;;;;;;19.21;37.03;101175.47;5075460;28;20381;-82
2022/03/05 00:44:34;;;;;;;11.20;9.45;;;;;;;19.21;37.10;101186.22;5072597;28;20052;-82
2022/03/05 00:47:02;;;;;;;12.82;9.35;;;;;;;19.21;37.13;101181.69;5072127;28;20036;-82
2022/03/05 00:49:29;;;;;;;9.18;8.25;;;;;;;19.21;37.18;101181.69;5076512;28;20048;-81
2022/03/05 00:51:56;;;;;;;9.68;8.68;;;;;;;19.22;37.08;101177.19;5075135;28;20049;-81
2022/03/05 00:54:24;;;;;;;9.80;8.52;;;;;;;19.21;36.90;101180.84;5076466;28;20063;-81
2022/03/05 00:56:52;;;;;;;11.82;9.20;;;;;;;19.21;37.16;101183.53;5076178;28;20044;-81
2022/03/05 00:59:19;;;;;;;9.35;8.45;;;;;;;19.21;36.83;101178.16;5076089;28;20078;-81
2022/03/05 01:01:46;;;;;;;9.57;8.60;;;;;;;19.20;36.92;101182.69;5076512;28;20044;-80
2022/03/05 01:04:14;;;;;;;10.65;9.30;;;;;;;19.21;37.02;101180.84;5076269;28;20357;-81
2022/03/05 01:06:41;;;;;;;10.05;8.50;;;;;;;19.21;37.12;101176.31;5074866;28;20055;-81
2022/03/05 01:09:09;;;;;;;9.82;8.45;;;;;;;19.20;37.10;101171.94;5074756;28;20044;-81
2022/03/05 01:11:37;;;;;;;11.60;8.50;;;;;;;19.21;37.09;101162.06;5076391;28;20044;-80
2022/03/05 01:14:05;;;;;;;12.68;9.23;;;;;;;19.21;36.91;101170.94;5075844;28;20393;-81
2022/03/05 01:16:34;;;;;;;10.07;8.60;;;;;;;19.20;36.87;101174.63;5075825;28;20072;-80
2022/03/05 01:19:02;;;;;;;11.98;8.82;;;;;;;19.21;36.49;101170.94;5076103;28;20041;-81
2022/03/05 01:21:29;;;;;;;10.77;9.15;;;;;;;19.21;36.59;101172.78;5075905;28;20044;-81
2022/03/05 01:23:57;;;;;;;11.00;9.60;;;;;;;19.22;36.51;101171.81;5075856;28;20044;-80
2022/03/05 01:26:27;;;;;;;12.35;9.10;;;;;;;19.22;36.61;101161.06;5075797;28;20594;-81
2022/03/05 01:28:55;;;;;;;8.80;7.95;;;;;;;19.21;36.55;101170.09;5076066;28;20052;-81
2022/03/05 01:31:23;;;;;;;9.20;8.20;;;;;;;19.22;36.76;101172.66;5073354;28;20055;-81
2022/03/05 01:33:51;;;;;;;12.02;9.88;;;;;;;19.23;36.50;101165.44;5076026;28;20055;-81
2022/03/05 01:36:18;;;;;;;10.73;9.00;;;;;;;19.22;36.46;101164.59;5074488;28;20048;-80
2022/03/05 01:38:46;;;;;;;9.75;8.07;;;;;;;19.22;36.38;101161.91;5075496;28;20500;-81
2022/03/05 01:41:13;;;;;;;9.82;8.57;;;;;;;19.21;36.49;101162.06;5074273;28;20542;-80
2022/03/05 01:43:40;;;;;;;9.93;8.45;;;;;;;19.21;36.29;101160.22;5075690;28;20051;-80
2022/03/05 01:46:10;;;;;;;9.90;8.52;;;;;;;19.21;36.54;101165.59;5070705;28;20036;-80
2022/03/05 01:48:39;;;;;;;9.20;8.20;;;;;;;19.21;36.55;101173.63;5056365;28;20068;-80
2022/03/05 01:51:07;;;;;;;9.43;8.10;;;;;;;19.22;36.57;101163.75;5055609;28;20040;-80
2022/03/05 01:53:34;;;;;;;9.70;8.13;;;;;;;19.22;36.37;101155.69;5054966;28;20057;-80
2022/03/05 01:56:02;;;;;;;10.95;8.98;;;;;;;19.21;36.45;101159.38;5055073;28;20052;-80
2022/03/05 01:58:29;;;;;;;8.88;7.55;;;;;;;19.20;36.47;101158.53;5061942;28;20099;-80
2022/03/05 02:00:57;;;;;;;9.13;8.23;;;;;;;19.21;36.45;101148.63;5075429;28;20048;-80
2022/03/05 02:03:24;;;;;;;9.82;8.77;;;;;;;19.19;36.56;101138.00;5075039;28;20049;-80
2022/03/05 02:05:52;;;;;;;10.18;9.13;;;;;;;19.19;36.29;101138.00;5075052;28;20059;-81
2022/03/05 02:08:19;;;;;;;10.57;8.52;;;;;;;19.19;36.48;101143.38;5075345;28;20045;-81
2022/03/05 02:10:46;;;;;;;9.80;8.32;;;;;;;19.20;36.54;101141.53;5074949;28;20045;-81
2022/03/05 02:13:14;;;;;;;11.23;8.30;;;;;;;19.19;36.42;101135.31;5074911;28;20052;-81
2022/03/05 02:15:41;;;;;;;10.65;8.93;;;;;;;19.18;36.55;101138.97;5073734;28;20048;-81
2022/03/05 02:18:09;;;;;;;9.57;8.57;;;;;;;19.19;36.59;101134.47;5074793;28;20037;-82
2022/03/05 02:20:39;;;;;;;10.43;8.77;;;;;;;19.19;36.56;101146.06;5074951;28;20110;-82
2022/03/05 02:23:06;;;;;;;11.50;9.20;;;;;;;19.18;36.50;101138.97;5074851;28;20400;-82
2022/03/05 02:25:33;;;;;;;10.13;9.02;;;;;;;19.18;36.70;101144.34;5074493;28;20055;-81
2022/03/05 02:28:02;;;;;;;10.48;9.38;;;;;;;19.19;36.44;101142.53;5074809;28;20044;-82
2022/03/05 02:30:29;;;;;;;11.35;9.38;;;;;;;19.19;36.49;101140.69;5073331;28;20492;-81
2022/03/05 02:32:57;;;;;;;10.43;9.43;;;;;;;19.18;36.47;101143.50;5074435;28;20051;-81
2022/03/05 02:35:25;;;;;;;11.20;8.93;;;;;;;19.18;36.53;101143.50;5073695;28;20052;-81
2022/03/05 02:37:58;;;;;;;10.65;8.73;;;;;;;19.18;36.49;101152.41;5074244;28;20052;-82
2022/03/05 02:40:26;;;;;;;9.88;8.88;;;;;;;19.18;36.27;101149.72;5073453;28;20056;-81
2022/03/05 02:42:53;;;;;;;10.18;8.30;;;;;;;19.18;36.17;101157.78;5074441;28;20055;-82
2022/03/05 02:45:21;;;;;;;10.25;8.80;;;;;;;19.18;36.25;101157.78;5074356;28;20048;-81
2022/03/05 02:47:48;;;;;;;10.25;9.20;;;;;;;19.17;36.21;101169.50;5062094;28;20040;-81
2022/03/05 02:50:15;;;;;;;9.93;8.85;;;;;;;19.18;36.21;101170.34;5052914;28;20399;-81
2022/03/05 02:52:43;;;;;;;9.30;8.30;;;;;;;19.17;36.33;101174.84;5054064;28;20056;-80
2022/03/05 02:55:10;;;;;;;11.20;8.55;;;;;;;19.18;36.31;101179.25;5053973;28;20068;-81
2022/03/05 02:57:38;;;;;;;10.73;9.55;;;;;;;19.17;36.23;101177.53;5054327;28;20041;-81
2022/03/05 03:00:06;;;;;;;10.93;8.75;;;;;;;19.17;36.29;101184.75;5052720;28;20052;-82
2022/03/05 03:02:33;;;;;;;8.98;8.00;;;;;;;19.18;36.28;101173.03;5054538;28;20056;-82
2022/03/05 03:05:00;;;;;;;11.23;9.02;;;;;;;19.17;36.12;101182.91;5054198;28;20045;-82
2022/03/05 03:07:28;;;;;;;10.00;8.43;;;;;;;19.17;36.26;101182.91;5053131;28;20056;-82
2022/03/05 03:09:55;;;;;;;11.38;8.95;;;;;;;19.17;36.13;101176.69;5053891;28;20045;-81
2022/03/05 03:12:27;;;;;;;9.80;8.20;;;;;;;19.16;36.46;101178.53;5056466;28;20052;-81
2022/03/05 03:14:55;;;;;;;9.55;8.50;;;;;;;19.16;36.17;101178.53;5073561;28;20044;-81
2022/03/05 03:17:23;;;;;;;12.02;9.07;;;;;;;19.16;36.05;101181.22;5073713;28;20037;-81
2022/03/05 03:19:50;;;;;;;8.65;7.75;;;;;;;19.16;36.16;101181.22;5072389;28;20052;-81
2022/03/05 03:22:19;;;;;;;10.02;8.27;;;;;;;19.16;36.25;101181.22;5073551;28;20045;-81
2022/03/05 03:24:46;;;;;;;9.50;8.50;;;;;;;19.17;36.20;101176.69;5073739;28;20049;-81
2022/03/05 03:27:14;;;;;;;11.48;8.20;;;;;;;19.16;36.19;101180.34;5073419;28;20435;-81
2022/03/05 03:29:41;;;;;;;9.68;8.38;;;;;;;19.16;36.03;101180.34;5073563;28;20062;-81
2022/03/05 03:32:08;;;;;;;9.55;8.65;;;;;;;19.16;36.12;101177.66;5073805;28;20040;-81
2022/03/05 03:34:36;;;;;;;10.25;8.68;;;;;;;19.15;36.28;101181.31;5072276;28;20060;-81
2022/03/05 03:37:04;;;;;;;10.88;8.55;;;;;;;19.15;36.08;101184.84;5073332;28;20472;-81
2022/03/05 03:39:31;;;;;;;10.32;8.68;;;;;;;19.16;36.30;101183.00;5073277;28;20051;-81
2022/03/05 03:41:58;;;;;;;9.30;8.10;;;;;;;19.16;36.23;101185.69;5073412;28;20044;-81
2022/03/05 03:44:25;;;;;;;9.48;8.13;;;;;;;19.15;36.27;101182.16;5073234;28;20055;-81
2022/03/05 03:46:53;;;;;;;9.07;8.15;;;;;;;19.15;36.16;101182.16;5073272;28;20048;-82
2022/03/05 03:49:21;;;;;;;9.50;8.27;;;;;;;19.15;36.10;101184.00;5055213;28;20048;-82
2022/03/05 03:51:49;;;;;;;8.90;7.95;;;;;;;19.15;36.08;101192.91;5053274;28;20048;-81
2022/03/05 03:54:17;;;;;;;9.77;7.88;;;;;;;19.16;36.13;101193.75;5052214;28;20059;-81
2022/03/05 03:56:44;;;;;;;10.05;8.82;;;;;;;19.15;36.17;101186.69;5053240;28;20052;-81
2022/03/05 03:59:12;;;;;;;9.75;8.75;;;;;;;19.14;36.20;101191.19;5057637;28;20055;-81
2022/03/05 04:01:39;;;;;;;9.80;8.75;;;;;;;19.14;36.04;101188.50;5073083;28;20036;-81
2022/03/05 04:04:07;;;;;;;11.50;9.52;;;;;;;19.14;35.76;101184.97;5073352;28;20056;-81
2022/03/05 04:09:20;;;;;;;9.23;8.10;;;;;;;19.15;35.69;101192.06;5072986;28;20049;-81
2022/03/05 04:11:47;;;;;;;10.68;9.55;;;;;;;19.15;35.77;101187.53;5073095;28;20096;-81
2022/03/05 04:14:15;;;;;;;8.93;8.02;;;;;;;19.14;35.65;101183.16;5056030;28;20053;-81
2022/03/05 04:16:42;;;;;;;10.75;8.95;;;;;;;19.15;35.81;101192.06;5072769;28;20040;-81
2022/03/05 04:19:10;;;;;;;9.70;8.70;;;;;;;19.14;35.80;101193.88;5064003;28;20041;-81
2022/03/05 04:21:37;;;;;;;10.10;8.95;;;;;;;19.15;35.70;101189.38;5051521;28;20060;-81
2022/03/05 04:24:05;;;;;;;11.15;8.65;;;;;;;19.15;35.82;101200.94;5052847;28;20489;-81
2022/03/05 04:26:33;;;;;;;10.45;9.00;;;;;;;19.15;35.92;101200.94;5052865;28;20041;-81
2022/03/05 04:29:00;;;;;;;10.15;8.73;;;;;;;19.13;35.99;101200.22;5053159;28;20512;-82
2022/03/05 04:31:27;;;;;;;11.82;8.82;;;;;;;19.13;36.12;101202.91;5052965;28;20067;-81
2022/03/05 04:33:55;;;;;;;10.00;8.77;;;;;;;19.12;36.12;101203.91;5052589;28;20056;-81
2022/03/05 04:36:22;;;;;;;11.25;9.77;;;;;;;19.12;36.12;101211.97;5052845;28;20048;-81
2022/03/05 04:38:50;;;;;;;11.13;8.50;;;;;;;19.11;36.31;101218.28;5052537;28;20048;-81
2022/03/05 04:41:17;;;;;;;10.10;8.93;;;;;;;19.11;36.45;101217.41;5051794;28;20056;-81
2022/03/05 04:43:46;;;;;;;9.20;8.20;;;;;;;19.12;36.59;101216.44;5052912;28;20049;-82
2022/03/05 04:46:15;;;;;;;11.05;8.85;;;;;;;19.11;36.61;101212.06;5052667;28;20049;-81
2022/03/05 04:48:42;;;;;;;9.57;8.57;;;;;;;19.10;36.71;101213.88;5057147;28;20047;-81
2022/03/05 04:51:10;;;;;;;10.40;9.32;;;;;;;19.10;36.59;101213.88;5051040;28;20045;-81
2022/03/05 04:53:37;;;;;;;10.40;8.73;;;;;;;19.10;36.49;101210.34;5052821;28;20053;-80
2022/03/05 04:56:04;;;;;;;11.65;9.45;;;;;;;19.10;36.71;101213.03;5052797;28;20103;-81
2022/03/05 04:58:32;;;;;;;9.57;8.32;;;;;;;19.10;36.72;101213.88;5051605;28;20041;-80
2022/03/05 05:01:01;;;;;;;9.55;8.55;;;;;;;19.10;36.85;101221.09;5053840;28;20403;-81
2022/03/05 05:03:29;;;;;;;10.60;8.57;;;;;;;19.09;36.78;101222.91;5054337;28;20049;-81
2022/03/05 05:05:57;;;;;;;10.43;8.57;;;;;;;19.09;36.80;101219.38;5052383;28;20385;-80
2022/03/05 05:08:24;;;;;;;10.18;8.70;;;;;;;19.10;36.70;101226.47;5055373;28;20473;-81
2022/03/05 05:10:52;;;;;;;9.63;8.63;;;;;;;19.09;36.67;101222.06;5054896;28;20373;-81
2022/03/05 05:13:19;;;;;;;10.32;9.23;;;;;;;19.09;36.86;101224.75;5057067;28;20389;-80
2022/03/05 05:15:46;;;;;;;11.02;8.80;;;;;;;19.09;36.79;101219.38;5074628;28;20067;-80
2022/03/05 05:18:14;;;;;;;9.73;8.82;;;;;;;19.09;36.93;101220.25;5076193;28;20049;-80
2022/03/05 05:20:41;;;;;;;9.80;8.75;;;;;;;19.10;36.74;101218.41;5075586;28;20055;-80
2022/03/05 05:23:08;;;;;;;10.48;9.45;;;;;;;19.09;36.88;101222.91;5075721;28;20045;-80
2022/03/05 05:25:36;;;;;;;10.60;8.50;;;;;;;19.10;36.83;101218.41;5076245;28;20048;-80
2022/03/05 05:28:03;;;;;;;10.80;8.98;;;;;;;19.08;36.87;101225.72;5075908;28;20051;-80
2022/03/05 05:30:32;;;;;;;9.13;8.23;;;;;;;19.09;36.94;101227.44;5075950;28;20380;-80
2022/03/05 05:32:59;;;;;;;9.57;8.48;;;;;;;19.09;36.89;101222.91;5075542;28;20048;-80
2022/03/05 05:35:28;;;;;;;9.63;8.63;;;;;;;19.08;36.79;101226.59;5075319;28;20056;-80
2022/03/05 05:37:55;;;;;;;9.63;8.63;;;;;;;19.08;36.74;101226.59;5074688;28;20064;-81
2022/03/05 05:40:22;;;;;;;8.82;7.90;;;;;;;19.09;36.59;101220.25;5075663;28;20071;-80
2022/03/05 05:42:50;;;;;;;8.85;7.75;;;;;;;19.09;36.64;101224.75;5075438;28;20044;-80
2022/03/05 05:45:17;;;;;;;9.18;7.80;;;;;;;19.08;36.80;101218.53;5074594;28;20380;-80
2022/03/05 05:47:45;;;;;;;9.75;8.75;;;;;;;19.09;36.68;101225.59;5075531;28;20468;-80
2022/03/05 05:50:12;;;;;;;8.45;7.40;;;;;;;19.08;36.62;101229.28;5065473;28;20041;-80
2022/03/05 05:52:40;;;;;;;9.40;8.50;;;;;;;19.06;36.72;101225.84;5053913;28;20053;-80
2022/03/05 05:55:08;;;;;;;8.43;7.63;;;;;;;19.08;36.75;101223.91;5055230;28;20072;-80
2022/03/05 05:57:35;;;;;;;8.35;7.55;;;;;;;19.08;36.88;101233.75;5054481;28;20400;-81
2022/03/05 06:00:04;;;;;;;8.65;7.72;;;;;;;19.07;36.93;101229.38;5063315;28;20539;-81
2022/03/05 06:02:38;;;;;;;8.38;7.53;;;;;;;19.07;36.88;101238.28;5082023;28;20056;-81
2022/03/05 06:05:06;;;;;;;8.70;7.68;;;;;;;19.05;36.87;101232.19;5074883;28;20056;-82
2022/03/05 06:07:33;;;;;;;7.88;7.07;;;;;;;19.06;36.98;101235.72;5073872;28;20044;-82
2022/03/05 06:10:00;;;;;;;7.78;7.07;;;;;;;19.04;36.79;101233.16;5075431;28;20460;-82
2022/03/05 06:12:28;;;;;;;8.63;7.72;;;;;;;19.05;36.89;101247.44;5075030;28;20477;-82
2022/03/05 06:14:55;;;;;;;9.35;7.75;;;;;;;19.05;37.00;101245.59;5074193;28;20045;-82
2022/03/05 06:17:22;;;;;;;10.30;7.70;;;;;;;19.05;36.78;101244.75;5074306;28;20044;-82
2022/03/05 06:19:50;;;;;;;8.63;7.78;;;;;;;19.05;36.62;101242.06;5073699;28;20045;-81
2022/03/05 06:22:17;;;;;;;8.18;7.38;;;;;;;19.04;36.70;101246.59;5074849;28;20048;-81
2022/03/05 06:24:44;;;;;;;7.88;7.07;;;;;;;19.03;36.85;101256.44;5074875;28;20357;-81
2022/03/05 06:27:12;;;;;;;8.18;7.38;;;;;;;19.04;36.47;101249.28;5075069;28;20055;-81
2022/03/05 06:29:39;;;;;;;7.43;6.72;;;;;;;19.03;36.65;101252.91;5074620;28;20041;-81
2022/03/05 06:32:08;;;;;;;7.30;6.60;;;;;;;19.03;36.74;101247.53;5074375;28;20530;-81
2022/03/05 06:34:36;;;;;;;7.68;6.97;;;;;;;19.02;36.78;101245.84;5074704;28;20045;-82
2022/03/05 06:37:03;;;;;;;8.90;7.60;;;;;;;19.02;36.64;101248.53;5074733;28;20048;-82
2022/03/05 06:39:30;;;;;;;7.93;6.97;;;;;;;19.01;36.70;101250.34;5074549;28;20044;-82
2022/03/05 06:41:58;;;;;;;7.60;6.80;;;;;;;19.02;36.72;101256.56;5073427;28;20127;-82
2022/03/05 06:44:31;;;;;;;7.28;6.57;;;;;;;19.01;36.72;101255.72;5073190;28;20089;-81
2022/03/05 06:46:59;;;;;;;7.63;6.82;;;;;;;19.02;36.70;101261.94;5074603;28;20041;-81
2022/03/05 06:49:26;;;;;;;8.82;7.15;;;;;;;19.02;36.73;101262.78;5074086;28;20044;-81
2022/03/05 06:51:53;;;;;;;8.05;7.20;;;;;;;19.01;36.61;101262.91;5065191;28;20049;-81
2022/03/05 06:54:20;;;;;;;9.30;7.78;;;;;;;19.02;36.64;101267.31;5055754;28;20488;-81
2022/03/05 06:56:48;;;;;;;10.10;7.50;;;;;;;19.02;36.71;101267.31;5053042;28;20421;-80
2022/03/05 06:59:15;;;;;;;8.05;6.93;;;;;;;19.02;36.42;101261.94;5054079;28;20048;-81
2022/03/05 07:01:43;;;;;;;8.25;7.45;;;;;;;19.02;36.51;101262.78;5054168;28;20045;-81
2022/03/05 07:04:10;;;;;;;8.02;7.22;;;;;;;19.03;36.51;101263.63;5052897;28;20071;-81
2022/03/05 07:06:38;;;;;;;8.80;7.93;;;;;;;19.03;36.42;101264.50;5053767;28;20044;-82
2022/03/05 07:09:05;;;;;;;8.00;6.82;;;;;;;19.03;36.55;101266.31;5054136;28;20044;-82
2022/03/05 07:11:33;;;;;;;7.00;6.30;;;;;;;19.03;36.47;101271.69;5053823;28;20055;-82
2022/03/05 07:14:00;;;;;;;7.70;6.90;;;;;;;19.03;36.50;101282.41;5053770;28;20051;-82
2022/03/05 07:16:28;;;;;;;8.10;7.25;;;;;;;19.03;36.51;101280.59;5073411;28;20051;-82
2022/03/05 07:18:56;;;;;;;8.05;7.25;;;;;;;19.02;36.47;101283.41;5073600;28;20080;-81
2022/03/05 07:21:24;;;;;;;7.53;6.78;;;;;;;19.03;36.47;101293.16;5073783;28;20048;-81
2022/03/05 07:23:51;;;;;;;8.00;7.20;;;;;;;19.02;36.49;101299.50;5073546;28;20044;-81
2022/03/05 07:26:18;;;;;;;7.40;6.68;;;;;;;19.02;36.46;101297.66;5073543;28;20048;-81
2022/03/05 07:28:46;;;;;;;7.95;6.70;;;;;;;19.02;36.54;101292.31;5073634;28;20044;-81
2022/03/05 07:31:13;;;;;;;7.55;6.80;;;;;;;19.02;36.35;101294.13;5073472;28;20048;-81
2022/03/05 07:33:41;;;;;;;8.25;6.68;;;;;;;19.02;36.27;101299.50;5073465;28;20416;-81
2022/03/05 07:36:08;;;;;;;8.05;7.20;;;;;;;19.02;36.70;101304.88;5072382;28;20049;-81
2022/03/05 07:38:36;;;;;;;7.53;6.38;;;;;;;19.03;36.47;101307.41;5073906;28;20051;-81
2022/03/05 07:41:03;;;;;;;7.57;6.55;;;;;;;19.03;36.51;101311.94;5073327;28;20056;-81
2022/03/05 07:43:30;;;;;;;8.68;7.38;;;;;;;19.02;36.50;101312.91;5072667;28;20060;-81
2022/03/05 07:45:58;;;;;;;8.48;6.90;;;;;;;19.02;36.57;101311.09;5072444;28;20060;-81
2022/03/05 07:48:25;;;;;;;8.25;7.18;;;;;;;19.02;36.60;101307.56;5073437;28;20045;-81
2022/03/05 07:50:53;;;;;;;8.43;7.50;;;;;;;19.01;36.24;101314.75;5073336;28;20037;-81
2022/03/05 07:53:20;;;;;;;8.38;7.25;;;;;;;19.02;36.57;101308.41;5061003;28;20052;-81
2022/03/05 07:55:48;;;;;;;8.48;6.72;;;;;;;19.03;36.37;101320.84;5053413;28;20049;-81
2022/03/05 07:58:15;;;;;;;7.47;6.65;;;;;;;19.02;36.41;101315.59;5053241;28;20060;-82
2022/03/05 08:00:43;;;;;;;10.65;7.35;;;;;;;19.01;36.61;101319.28;5058230;28;20056;-81
2022/03/05 08:03:11;;;;;;;8.65;7.68;;;;;;;19.01;36.40;101319.28;5072023;28;20048;-82
2022/03/05 08:05:38;;;;;;;9.10;6.88;;;;;;;19.00;36.47;101322.94;5072348;28;20080;-82
2022/03/05 08:08:06;;;;;;;7.80;6.97;;;;;;;19.01;36.51;101327.31;5073629;28;20045;-81
2022/03/05 08:10:33;;;;;;;7.85;6.65;;;;;;;19.00;36.50;101322.94;5072000;28;20055;-81
2022/03/05 08:13:01;;;;;;;9.75;7.60;;;;;;;19.00;36.18;101325.63;5073235;28;20056;-81
2022/03/05 08:15:28;;;;;;;8.57;7.68;;;;;;;18.99;36.47;101323.88;5073097;28;20056;-81
2022/03/05 08:18:00;;;;;;;9.00;7.25;;;;;;;19.00;36.62;101328.31;5073117;28;20123;-82
2022/03/05 08:20:30;;;;;;;8.80;7.30;;;;;;;19.00;36.63;101323.78;5072262;28;20053;-81
2022/03/05 08:22:58;;;;;;;7.93;6.43;;;;;;;19.00;36.47;101320.25;5073529;28;20400;-81
2022/03/05 08:25:27;;;;;;;8.70;7.00;;;;;;;19.01;36.54;101325.50;5073085;28;20044;-81
2022/03/05 08:27:54;;;;;;;8.95;7.18;;;;;;;19.00;36.46;101317.56;5073333;28;20045;-81
2022/03/05 08:30:22;;;;;;;8.60;7.03;;;;;;;19.01;36.46;101324.63;5073489;28;20048;-81
2022/03/05 08:32:49;;;;;;;13.38;7.47;;;;;;;18.99;37.51;101321.19;5072177;28;20052;-81
2022/03/05 08:35:16;;;;;;;10.05;7.18;;;;;;;18.97;38.11;101324.00;5073074;28;20044;-82
2022/03/05 08:37:44;;;;;;;9.05;6.97;;;;;;;18.97;38.29;101318.66;5072067;28;20607;-81
2022/03/05 08:40:13;;;;;;;8.40;6.93;;;;;;;18.96;37.82;101314.25;5073140;28;20044;-81
2022/03/05 08:42:42;;;;;;;7.53;6.20;;;;;;;18.97;37.55;101309.75;5076833;28;20385;-81
2022/03/05 08:45:10;;;;;;;11.25;6.82;;;;;;;18.97;37.73;101312.44;5077050;28;20051;-81
2022/03/05 08:47:38;;;;;;;8.40;6.95;;;;;;;18.96;37.47;101321.47;5076849;28;20048;-83
2022/03/05 08:50:06;;;;;;;12.90;7.63;;;;;;;18.98;37.50;101316.81;5077610;28;20045;-81
2022/03/05 08:52:36;;;;;;;12.25;9.27;;;;;;;18.93;33.92;101317.16;5073762;28;20049;-81
2022/03/05 08:55:08;;;;;;;13.57;11.45;;;;;;;18.52;31.61;101313.09;5057025;28;20053;-82
2022/03/05 08:57:37;;;;;;;11.93;9.97;;;;;;;18.36;32.51;101315.19;5039366;28;20053;-82
2022/03/05 09:00:07;;;;;;;12.07;8.20;;;;;;;18.41;36.40;101314.84;5057496;28;20053;-82
2022/03/05 09:02:35;;;;;;;10.32;8.38;;;;;;;18.46;36.13;101313.53;5055708;28;20067;-81
2022/03/05 09:05:03;;;;;;;11.82;8.07;;;;;;;18.51;34.93;101313.19;5056623;28;20508;-81
2022/03/05 09:07:31;;;;;;;12.25;8.43;;;;;;;18.56;34.62;101312.84;5056867;28;20048;-81
2022/03/05 09:09:58;;;;;;;9.20;7.65;;;;;;;18.59;35.14;101302.72;5056726;28;20048;-81
2022/03/05 09:12:25;;;;;;;9.05;7.57;;;;;;;18.63;35.31;101306.91;5056973;28;20363;-82
2022/03/05 09:14:53;;;;;;;8.60;7.43;;;;;;;18.67;35.21;101299.47;5058064;28;20056;-82
2022/03/05 09:17:20;;;;;;;11.50;7.53;;;;;;;18.70;35.41;101305.50;5074961;28;20063;-82
2022/03/05 09:19:48;;;;;;;11.43;7.18;;;;;;;18.72;35.25;101302.72;5061908;28;20374;-82
2022/03/05 09:22:17;;;;;;;8.32;6.43;;;;;;;18.75;35.20;101307.81;5056417;28;20049;-82
2022/03/05 09:24:44;;;;;;;9.50;6.95;;;;;;;18.75;35.43;101303.31;5038449;28;20053;-82
2022/03/05 09:27:11;;;;;;;7.97;6.88;;;;;;;18.77;35.56;101305.91;5055558;28;20056;-82
2022/03/05 09:29:39;;;;;;;10.23;7.38;;;;;;;18.77;35.37;101301.38;5054700;28;20504;-82
2022/03/05 09:32:08;;;;;;;9.00;7.95;;;;;;;18.79;35.32;101301.25;5055317;28;20048;-82
2022/03/05 09:34:36;;;;;;;10.80;6.38;;;;;;;18.80;35.09;101299.44;5055836;28;20484;-82
2022/03/05 09:37:04;;;;;;;7.13;6.00;;;;;;;18.80;35.06;101299.44;5056790;28;20045;-81
2022/03/05 09:39:31;;;;;;;8.57;6.90;;;;;;;18.80;35.10;101300.31;5056190;28;20052;-82
2022/03/05 09:42:00;;;;;;;8.70;6.65;;;;;;;18.81;35.13;101290.44;5054699;28;20049;-81
2022/03/05 09:44:28;;;;;;;7.80;5.93;;;;;;;18.82;35.00;101289.44;5056496;28;20041;-82
2022/03/05 09:46:57;;;;;;;9.55;5.43;;;;;;;18.83;35.09;101293.84;5057702;28;20048;-82
2022/03/05 09:49:27;;;;;;;8.35;7.20;;;;;;;18.83;35.12;101296.50;5062015;28;20048;-80
2022/03/05 09:51:57;;;;;;;7.72;6.07;;;;;;;18.83;34.97;101293.84;5071119;28;20041;-81
2022/03/05 09:54:25;;;;;;;8.38;6.03;;;;;;;18.83;35.05;101294.69;5067115;28;20052;-81
2022/03/05 09:56:52;;;;;;;10.00;6.13;;;;;;;18.82;35.09;101290.31;5074970;28;20416;-82
2022/03/05 09:59:21;;;;;;;7.13;6.18;;;;;;;18.84;35.19;101292.84;5075528;28;20119;-81
2022/03/05 10:01:50;;;;;;;7.88;5.72;;;;;;;18.83;35.20;101281.28;5075454;28;20049;-82
2022/03/05 10:04:23;;;;;;;7.53;6.28;;;;;;;18.84;35.16;101284.81;5075950;28;20048;-81
2022/03/05 10:07:08;;;;;;;7.47;5.85;;;;;;;18.83;35.09;101285.78;5074925;28;20040;-82
2022/03/05 10:09:37;;;;;;;7.10;5.90;;;;;;;18.83;34.79;101283.94;5076773;28;20053;-81
2022/03/05 10:12:27;;;;;;;7.88;6.28;;;;;;;18.83;35.05;101283.94;5074018;28;20056;-82
2022/03/05 10:15:05;;;;;;;8.63;5.78;;;;;;;18.83;35.08;101280.41;5032599;28;20060;-82
2022/03/05 10:17:52;;;;;;;7.50;5.50;;;;;;;18.83;34.81;101283.09;5033254;28;20064;-81
2022/03/05 10:20:31;;;;;;;8.65;5.65;;;;;;;18.84;34.98;101274.06;5032846;28;20394;-82
2022/03/05 10:23:07;;;;;;;8.00;5.90;;;;;;;18.83;34.85;101269.69;5033435;28;20398;-81
2022/03/05 10:25:44;;;;;;;7.13;6.13;;;;;;;18.83;34.90;101278.59;5033231;28;20065;-81
2022/03/05 10:28:15;;;;;;;6.50;5.80;;;;;;;18.83;34.83;101280.41;5033747;28;20060;-82
2022/03/05 10:30:48;;;;;;;6.93;6.18;;;;;;;18.84;34.84;101268.72;5033233;28;20049;-81
2022/03/05 10:33:38;;;;;;;7.57;5.88;;;;;;;18.84;34.75;101268.72;5033303;28;20543;-81
2022/03/05 10:36:19;;;;;;;7.05;5.60;;;;;;;18.84;35.01;101271.41;5032633;28;20406;-82
2022/03/05 10:38:57;;;;;;;6.53;5.10;;;;;;;18.84;34.75;101266.03;5034748;28;20069;-81
2022/03/05 10:41:39;;;;;;;6.80;5.43;;;;;;;18.83;34.76;101261.66;5033332;28;20054;-81
2022/03/05 10:44:11;;;;;;;7.70;5.53;;;;;;;18.84;34.75;101257.97;5034622;28;20053;-81
2022/03/05 10:46:44;;;;;;;7.22;5.80;;;;;;;18.83;34.70;101262.50;5015619;28;20056;-81
2022/03/05 10:49:31;;;;;;;7.43;5.22;;;;;;;18.83;34.68;101264.31;5032338;28;20056;-81
2022/03/05 10:51:58;;;;;;;5.90;5.30;;;;;;;18.83;34.74;101258.97;5041191;28;20053;-82
2022/03/05 10:54:27;;;;;;;7.15;5.22;;;;;;;18.83;34.54;101259.81;5054974;28;20048;-81
2022/03/05 10:57:10;;;;;;;6.97;5.30;;;;;;;18.84;34.66;101252.63;5053690;28;20477;-81
2022/03/05 10:59:43;;;;;;;7.68;5.78;;;;;;;18.84;34.65;101249.94;5054798;28;20052;-81
2022/03/05 11:02:14;;;;;;;6.72;5.20;;;;;;;18.84;34.68;101253.50;5054680;28;20048;-82
2022/03/05 11:04:44;;;;;;;8.32;5.35;;;;;;;18.84;34.64;101247.25;5054101;28;20048;-81
2022/03/05 11:07:12;;;;;;;7.95;5.50;;;;;;;18.83;34.57;101246.41;5052533;28;20409;-82
2022/03/05 11:09:43;;;;;;;6.57;5.28;;;;;;;18.83;34.61;101241.03;5054103;28;20041;-82
2022/03/05 11:12:19;;;;;;;6.03;4.97;;;;;;;18.83;34.70;101240.19;5053509;28;20045;-81
2022/03/05 11:14:47;;;;;;;5.80;4.60;;;;;;;18.84;34.78;101241.88;5054569;28;20053;-81
2022/03/05 11:17:15;;;;;;;6.97;5.13;;;;;;;18.84;34.58;101247.25;5067979;28;20056;-81
2022/03/05 11:19:43;;;;;;;5.82;4.65;;;;;;;18.84;34.26;101239.19;5073440;28;20049;-82
2022/03/05 11:22:13;;;;;;;6.50;5.25;;;;;;;18.84;34.55;101247.25;5073147;28;20477;-81
2022/03/05 11:24:43;;;;;;;6.82;5.22;;;;;;;18.83;34.70;101237.50;5073862;28;20492;-82
2022/03/05 11:27:15;;;;;;;6.22;5.00;;;;;;;18.83;34.66;101233.00;5073331;28;20408;-82
2022/03/05 11:30:04;;;;;;;6.13;4.63;;;;;;;18.83;34.38;101224.94;5073557;28;20590;-82